Time;durP1;ratioP1;P1;durP2;ratioP2;P2;SDS_P1;SDS_P2;PMS_P1;PMS_P2;Temp;Humidity;BMP_temperature;BMP_pressure;BME280_temperature;BME280_humidity;BME280_pressure;Samples;Min_cycle;Max_cycle;Signal;HPM_P1;HPM_P2
2023/08/09 00:00:32;;;;;;;19.65;2.22;;;;;;;-144.73;100.00;54559.59;4994710;28;20136;-75
2023/08/09 00:03:01;;;;;;;16.00;3.53;;;;;;;-144.73;100.00;54584.22;4992076;28;20108;-74
2023/08/09 00:05:27;;;;;;;10.65;2.17;;;;;;;-144.73;100.00;54539.06;4976550;28;20031;-74
2023/08/09 00:07:52;;;;;;;13.13;2.33;;;;;;;-144.73;100.00;54543.16;5055855;28;20029;-74
2023/08/09 00:10:18;;;;;;;9.82;2.38;;;;;;;-144.73;100.00;54563.69;4985318;28;20055;-74
2023/08/09 00:12:43;;;;;;;12.52;2.35;;;;;;;-144.73;100.00;54551.38;4955263;28;20032;-75
2023/08/09 00:15:09;;;;;;;11.60;2.20;;;;;;;-144.73;100.00;54580.13;4956527;28;20023;-74
2023/08/09 00:17:37;;;;;;;29.38;4.03;;;;;;;-144.73;100.00;54530.84;5037273;28;20043;-74
2023/08/09 00:20:04;;;;;;;10.25;2.42;;;;;;;-144.73;100.00;54551.38;4950614;28;20039;-74
2023/08/09 00:22:30;;;;;;;11.18;1.75;;;;;;;-144.73;100.00;54522.63;5021235;28;20031;-74
2023/08/09 00:24:56;;;;;;;17.80;2.35;;;;;;;-144.73;100.00;54604.75;4953688;28;20026;-74
2023/08/09 00:27:22;;;;;;;21.05;2.88;;;;;;;-144.73;100.00;54524.69;4974531;28;20043;-74
2023/08/09 00:29:47;;;;;;;15.68;2.55;;;;;;;-144.73;100.00;54555.47;4959910;28;20023;-75
2023/08/09 00:32:13;;;;;;;22.63;2.58;;;;;;;-144.73;100.00;54543.16;4987537;28;20031;-75
2023/08/09 00:34:38;;;;;;;16.45;2.13;;;;;;;-144.73;100.00;54563.69;4980732;28;20034;-74
2023/08/09 00:37:04;;;;;;;33.22;3.35;;;;;;;-144.73;100.00;54553.44;4966546;28;20028;-74
2023/08/09 00:39:30;;;;;;;17.08;3.13;;;;;;;-144.73;100.00;54539.06;5030801;28;20026;-75
2023/08/09 00:41:55;;;;;;;18.35;2.53;;;;;;;-144.73;100.00;54573.97;4982585;28;20036;-74
2023/08/09 00:44:21;;;;;;;13.48;2.38;;;;;;;-144.73;100.00;54563.69;4964525;28;20033;-74
2023/08/09 00:46:47;;;;;;;9.48;2.08;;;;;;;-144.73;100.00;54543.16;5028803;28;20021;-74
2023/08/09 00:49:12;;;;;;;16.60;2.72;;;;;;;-144.73;100.00;54530.84;4972546;28;20060;-74
2023/08/09 00:51:38;;;;;;;10.38;1.90;;;;;;;-144.73;100.00;54571.91;5000881;28;20030;-74
2023/08/09 00:54:05;;;;;;;10.43;1.55;;;;;;;-144.73;100.00;54582.16;5046980;28;20049;-74
2023/08/09 00:56:30;;;;;;;18.02;2.20;;;;;;;-144.73;100.00;54567.81;4981172;28;20037;-74
2023/08/09 00:58:56;;;;;;;10.23;2.42;;;;;;;-144.73;100.00;54559.59;5027819;28;20029;-74
2023/08/09 01:01:21;;;;;;;9.73;2.40;;;;;;;-144.73;100.00;54539.06;4988806;28;20033;-74
2023/08/09 01:03:47;;;;;;;12.50;2.50;;;;;;;-144.73;100.00;54567.81;5015381;28;20033;-74
2023/08/09 01:06:39;;;;;;;12.48;2.20;;;;;;;-144.73;100.00;54555.47;5020779;28;20068;-73
2023/08/09 01:09:25;;;;;;;11.32;2.72;;;;;;;-144.73;100.00;54588.31;5011554;28;20123;-73
2023/08/09 01:12:20;;;;;;;11.77;2.00;;;;;;;-144.73;100.00;54518.53;4951930;28;20039;-73
2023/08/09 01:14:51;;;;;;;6.47;1.65;;;;;;;-144.73;100.00;54543.16;4954969;28;20042;-74
2023/08/09 01:17:17;;;;;;;29.60;3.70;;;;;;;-144.73;100.00;54596.53;4943587;28;20115;-74
2023/08/09 01:19:53;;;;;;;7.43;2.10;;;;;;;-144.73;100.00;54555.47;4942841;28;20053;-73
2023/08/09 01:22:26;;;;;;;13.90;2.03;;;;;;;-144.73;100.00;54522.63;4993894;28;20036;-74
2023/08/09 01:24:52;;;;;;;15.75;2.22;;;;;;;-144.73;100.00;54571.91;4958792;28;20019;-73
2023/08/09 01:27:18;;;;;;;17.40;2.55;;;;;;;-144.73;100.00;54547.28;4949673;28;20073;-73
2023/08/09 01:29:44;;;;;;;19.65;3.90;;;;;;;-144.73;100.00;54580.13;4962267;28;20494;-75
2023/08/09 01:32:11;;;;;;;16.00;2.08;;;;;;;-144.73;100.00;54551.38;5016934;28;20037;-75
2023/08/09 01:34:37;;;;;;;16.70;2.00;;;;;;;-144.73;100.00;54571.91;4988168;28;20073;-73
2023/08/09 01:37:12;;;;;;;11.85;2.25;;;;;;;-144.73;100.00;54580.13;4939054;28;20521;-74
2023/08/09 01:39:40;;;;;;;12.68;2.05;;;;;;;-144.73;100.00;54551.38;4952898;28;20081;-75
2023/08/09 01:42:06;;;;;;;23.13;2.42;;;;;;;-144.73;100.00;54563.69;4993142;28;20126;-75
2023/08/09 01:44:35;;;;;;;10.85;1.85;;;;;;;-144.73;100.00;54547.28;4981487;28;20023;-75
2023/08/09 01:47:01;;;;;;;22.20;2.28;;;;;;;-144.73;100.00;54549.31;4939553;28;20050;-75
2023/08/09 01:49:26;;;;;;;7.35;2.13;;;;;;;-144.73;100.00;54551.38;5007687;28;20054;-75
2023/08/09 01:51:52;;;;;;;14.20;1.88;;;;;;;-144.73;100.00;54576.00;4976315;28;20044;-75
2023/08/09 01:54:18;;;;;;;13.02;2.58;;;;;;;-144.73;100.00;54571.91;4949548;28;20023;-75
2023/08/09 01:56:44;;;;;;;13.77;2.03;;;;;;;-144.73;100.00;54541.13;4970849;28;20031;-73
2023/08/09 01:59:09;;;;;;;21.13;3.78;;;;;;;-144.73;100.00;54571.91;5016808;28;20025;-73
2023/08/09 02:01:38;;;;;;;18.23;1.98;;;;;;;-144.73;100.00;54555.47;4938690;28;20445;-73
2023/08/09 02:04:04;;;;;;;15.02;2.08;;;;;;;-144.73;100.00;54518.53;4934898;28;20059;-73
2023/08/09 02:06:32;;;;;;;12.38;2.42;;;;;;;-144.73;100.00;54612.97;4995140;28;20052;-73
2023/08/09 02:08:59;;;;;;;16.58;2.08;;;;;;;-144.73;100.00;54539.06;5027042;28;20067;-73
2023/08/09 02:11:25;;;;;;;10.57;1.73;;;;;;;-144.73;100.00;54559.59;5012907;28;20035;-73
2023/08/09 02:13:51;;;;;;;6.40;1.80;;;;;;;-144.73;100.00;54539.06;4938533;28;20035;-74
2023/08/09 02:16:16;;;;;;;16.13;2.28;;;;;;;-144.73;100.00;54584.22;4977695;28;20046;-73
2023/08/09 02:18:42;;;;;;;14.57;2.50;;;;;;;-144.73;100.00;54569.84;5000985;28;20068;-74
2023/08/09 02:21:07;;;;;;;11.25;2.28;;;;;;;-144.73;100.00;54547.28;4946500;28;20121;-74
2023/08/09 02:23:33;;;;;;;11.60;1.83;;;;;;;-144.73;100.00;54545.22;4951968;28;20381;-74
2023/08/09 02:25:58;;;;;;;15.10;2.15;;;;;;;-144.73;100.00;54567.81;4970016;28;20063;-73
2023/08/09 02:28:24;;;;;;;8.27;2.30;;;;;;;-144.73;100.00;54551.38;4951408;28;20023;-74
2023/08/09 02:30:49;;;;;;;8.15;2.03;;;;;;;-144.73;100.00;54561.63;5004452;28;20029;-74
2023/08/09 02:33:15;;;;;;;11.65;2.10;;;;;;;-144.73;100.00;54545.22;4981654;28;20064;-73
2023/08/09 02:35:54;;;;;;;15.95;2.80;;;;;;;-144.73;100.00;54530.84;4994252;28;20029;-73
2023/08/09 02:38:21;;;;;;;13.80;2.28;;;;;;;-144.73;100.00;54584.22;5022329;28;20079;-73
2023/08/09 02:40:46;;;;;;;8.50;2.13;;;;;;;-144.73;100.00;54547.28;4974670;28;20045;-73
2023/08/09 02:43:12;;;;;;;11.80;2.38;;;;;;;-144.73;100.00;54551.38;4975833;28;20057;-73
2023/08/09 02:45:37;;;;;;;11.48;2.40;;;;;;;-144.73;100.00;54555.47;4935000;28;20055;-73
2023/08/09 02:48:03;;;;;;;15.07;2.20;;;;;;;-144.73;100.00;54567.81;5013702;28;20087;-74
2023/08/09 02:50:28;;;;;;;9.70;2.47;;;;;;;-144.73;100.00;54530.84;4973097;28;20019;-74
2023/08/09 02:52:54;;;;;;;14.35;2.50;;;;;;;-144.73;100.00;54588.31;5008440;28;20024;-74
2023/08/09 02:55:20;;;;;;;8.00;2.88;;;;;;;-144.73;100.00;54551.38;5008617;28;20119;-74
2023/08/09 02:57:45;;;;;;;10.23;2.13;;;;;;;-144.73;100.00;54553.44;4964088;28;20059;-74
2023/08/09 03:00:16;;;;;;;12.13;4.28;;;;;;;-144.73;100.00;54571.91;4973401;28;20034;-74
2023/08/09 03:02:41;;;;;;;10.38;2.38;;;;;;;-144.73;100.00;54590.38;4945035;28;20094;-74
2023/08/09 03:05:08;;;;;;;8.70;2.40;;;;;;;-144.73;100.00;54539.06;4934533;28;20111;-73
2023/08/09 03:07:33;;;;;;;14.07;3.40;;;;;;;-144.73;100.00;54547.28;5033126;28;20031;-74
2023/08/09 03:09:59;;;;;;;20.48;3.42;;;;;;;-144.73;100.00;54543.16;4934074;28;20035;-75
2023/08/09 03:12:24;;;;;;;10.25;2.70;;;;;;;-144.73;100.00;54573.97;5032732;28;20043;-74
2023/08/09 03:14:50;;;;;;;20.85;3.17;;;;;;;-144.73;100.00;54571.91;4974725;28;20497;-74
2023/08/09 03:17:15;;;;;;;22.48;3.67;;;;;;;-144.73;100.00;54567.81;4996608;28;20071;-74
2023/08/09 03:19:40;;;;;;;12.95;2.40;;;;;;;-144.73;100.00;54512.38;4991702;28;20024;-74
2023/08/09 03:22:06;;;;;;;13.13;2.95;;;;;;;-144.73;100.00;54563.69;5008815;28;20044;-74
2023/08/09 03:24:31;;;;;;;13.18;3.17;;;;;;;-144.73;100.00;54569.84;4993346;28;20109;-74
2023/08/09 03:26:56;;;;;;;14.75;2.65;;;;;;;-144.73;100.00;54555.47;4934683;28;20032;-74
2023/08/09 03:29:22;;;;;;;14.00;2.70;;;;;;;-144.73;100.00;54539.06;4973932;28;20110;-73
2023/08/09 03:31:47;;;;;;;16.70;3.33;;;;;;;-144.73;100.00;54539.06;4961868;28;20483;-72
2023/08/09 03:34:13;;;;;;;14.73;3.08;;;;;;;-144.73;100.00;54559.59;5047946;28;20438;-72
2023/08/09 03:36:39;;;;;;;10.27;2.30;;;;;;;-144.73;100.00;54530.84;5031479;28;20025;-73
2023/08/09 03:39:04;;;;;;;14.52;3.28;;;;;;;-144.73;100.00;54539.06;5049281;28;20029;-72
2023/08/09 03:41:30;;;;;;;16.25;3.25;;;;;;;-144.73;100.00;54565.75;4972172;28;20089;-74
2023/08/09 03:43:55;;;;;;;13.30;2.50;;;;;;;-144.73;100.00;54590.38;5004619;28;20021;-74
2023/08/09 03:46:20;;;;;;;17.02;3.22;;;;;;;-144.73;100.00;54551.38;4998772;28;20063;-74
2023/08/09 03:48:46;;;;;;;10.52;3.95;;;;;;;-144.73;100.00;54596.53;4933514;28;20042;-74
2023/08/09 03:51:11;;;;;;;9.13;4.38;;;;;;;-144.73;100.00;54590.38;4973209;28;20035;-74
2023/08/09 03:53:36;;;;;;;12.43;2.88;;;;;;;-144.73;100.00;54573.97;4971954;28;20017;-74
2023/08/09 03:56:02;;;;;;;12.10;2.58;;;;;;;-144.73;100.00;54539.06;5007988;28;20025;-74
2023/08/09 03:58:27;;;;;;;12.10;3.85;;;;;;;-144.73;100.00;54559.59;4955085;28;20024;-74
2023/08/09 04:00:52;;;;;;;18.08;3.25;;;;;;;-144.73;100.00;54522.63;4997579;28;20031;-75
2023/08/09 04:03:18;;;;;;;14.63;3.72;;;;;;;-144.73;100.00;54547.28;4936811;28;20031;-74
2023/08/09 04:05:44;;;;;;;14.60;3.40;;;;;;;-144.73;100.00;54563.69;4957547;28;20120;-74
2023/08/09 04:08:10;;;;;;;13.50;3.10;;;;;;;-144.73;100.00;54498.00;4949798;28;20031;-74
2023/08/09 04:10:35;;;;;;;13.75;4.03;;;;;;;-144.73;100.00;54539.06;4977284;28;20047;-74
2023/08/09 04:13:01;;;;;;;14.93;3.17;;;;;;;-144.73;100.00;54565.75;5007978;28;20020;-75
2023/08/09 04:15:26;;;;;;;15.05;3.40;;;;;;;-144.73;100.00;54551.38;5000316;28;20068;-74
2023/08/09 04:17:52;;;;;;;18.08;3.35;;;;;;;-144.73;100.00;54547.28;4959991;28;20075;-75
2023/08/09 04:20:19;;;;;;;11.20;3.10;;;;;;;-144.73;100.00;54555.47;4995623;28;20098;-74
2023/08/09 04:22:44;;;;;;;13.25;2.88;;;;;;;-144.73;100.00;54553.44;4991764;28;20500;-74
2023/08/09 04:25:12;;;;;;;18.60;3.35;;;;;;;-144.73;100.00;54563.69;5008014;28;20094;-74
2023/08/09 04:27:41;;;;;;;21.45;3.53;;;;;;;-144.73;100.00;54567.81;4991114;28;20023;-74
2023/08/09 04:30:09;;;;;;;12.60;3.92;;;;;;;-144.73;100.00;54553.44;4973847;28;20078;-74
2023/08/09 04:32:35;;;;;;;13.20;3.58;;;;;;;-144.73;100.00;54543.16;4972892;28;20059;-74
2023/08/09 04:35:01;;;;;;;13.93;2.88;;;;;;;-144.73;100.00;54576.00;4937862;28;20027;-73
2023/08/09 04:37:27;;;;;;;9.70;2.92;;;;;;;-144.73;100.00;54571.91;4972683;28;20039;-74
2023/08/09 04:39:53;;;;;;;16.85;3.30;;;;;;;-144.73;100.00;54565.75;4958910;28;20025;-74
2023/08/09 04:42:18;;;;;;;12.57;3.25;;;;;;;-144.73;100.00;54555.47;4998383;28;20092;-73
2023/08/09 04:44:44;;;;;;;10.90;2.55;;;;;;;-144.73;100.00;54539.06;4975734;28;20051;-74
2023/08/09 04:47:09;;;;;;;12.80;3.10;;;;;;;-144.73;100.00;54561.63;4977239;28;20039;-73
2023/08/09 04:49:35;;;;;;;11.85;2.10;;;;;;;-144.73;100.00;54578.06;4991056;28;20036;-74
2023/08/09 04:52:00;;;;;;;11.98;2.95;;;;;;;-144.73;100.00;54569.84;4987879;28;20027;-74
2023/08/09 04:54:25;;;;;;;8.27;2.63;;;;;;;-144.73;100.00;54551.38;4976449;28;20146;-73
2023/08/09 04:56:51;;;;;;;9.90;2.40;;;;;;;-144.73;100.00;54563.69;4975875;28;20032;-74
2023/08/09 04:59:16;;;;;;;7.80;2.33;;;;;;;-144.73;100.00;54604.75;4983306;28;20105;-74
2023/08/09 05:01:41;;;;;;;6.53;2.33;;;;;;;-144.73;100.00;54557.53;4954323;28;20042;-74
2023/08/09 05:04:07;;;;;;;10.27;2.47;;;;;;;-144.73;100.00;54559.59;4967987;28;20418;-74
2023/08/09 05:06:33;;;;;;;14.38;2.40;;;;;;;-144.73;100.00;54608.84;4970148;28;20029;-74
2023/08/09 05:08:58;;;;;;;12.63;2.50;;;;;;;-144.73;100.00;54547.28;4965338;28;20125;-74
2023/08/09 05:11:24;;;;;;;11.52;2.20;;;;;;;-144.73;100.00;54530.84;4979638;28;20486;-74
2023/08/09 05:13:49;;;;;;;13.30;2.88;;;;;;;-144.73;100.00;54571.91;4986186;28;20021;-73
2023/08/09 05:16:15;;;;;;;12.90;2.67;;;;;;;-144.73;100.00;54596.53;4992198;28;20126;-74
2023/08/09 05:18:40;;;;;;;9.63;2.58;;;;;;;-144.73;100.00;54571.91;4988338;28;20031;-74
2023/08/09 05:21:05;;;;;;;11.85;2.80;;;;;;;-144.73;100.00;54580.13;4993203;28;20043;-73
2023/08/09 05:23:33;;;;;;;8.55;3.17;;;;;;;-144.73;100.00;54543.16;5018063;28;20025;-73
2023/08/09 05:25:59;;;;;;;9.45;2.88;;;;;;;-144.73;100.00;54559.59;5022988;28;20038;-73
2023/08/09 05:28:24;;;;;;;8.98;2.72;;;;;;;-144.73;100.00;54567.81;5020331;28;20036;-73
2023/08/09 05:30:49;;;;;;;11.18;2.72;;;;;;;-144.73;100.00;54551.38;4993660;28;20033;-74
2023/08/09 05:33:16;;;;;;;13.02;2.35;;;;;;;-144.73;100.00;54541.13;4955190;28;20032;-73
2023/08/09 05:35:44;;;;;;;10.00;2.17;;;;;;;-144.73;100.00;54522.63;5009663;28;20040;-73
2023/08/09 05:38:09;;;;;;;19.38;3.10;;;;;;;-144.73;100.00;54526.75;5022083;28;20087;-74
2023/08/09 05:40:35;;;;;;;13.88;2.05;;;;;;;-144.73;100.00;54594.47;4953039;28;20037;-74
2023/08/09 05:43:00;;;;;;;15.90;2.53;;;;;;;-144.73;100.00;54522.63;4963315;28;20025;-74
2023/08/09 05:45:26;;;;;;;12.57;2.25;;;;;;;-144.73;100.00;54543.16;4982162;28;20150;-74
2023/08/09 05:47:51;;;;;;;12.23;2.75;;;;;;;-144.73;100.00;54522.63;5052182;28;20021;-74
2023/08/09 05:50:16;;;;;;;19.13;3.42;;;;;;;-144.73;100.00;54539.06;4954169;28;20112;-74
2023/08/09 05:52:42;;;;;;;13.85;2.17;;;;;;;-144.73;100.00;54543.16;4966054;28;20027;-74
2023/08/09 05:55:08;;;;;;;14.48;2.15;;;;;;;-144.73;100.00;54498.00;4980723;28;20019;-74
2023/08/09 05:57:33;;;;;;;18.85;3.20;;;;;;;-144.73;100.00;54588.31;4934198;28;20043;-73
2023/08/09 05:59:59;;;;;;;10.95;1.98;;;;;;;-144.73;100.00;54547.28;4945483;28;20027;-74
2023/08/09 06:02:25;;;;;;;17.65;2.97;;;;;;;-144.73;100.00;54539.06;4989682;28;20054;-74
2023/08/09 06:04:50;;;;;;;12.40;1.80;;;;;;;-144.73;100.00;54551.38;5005138;28;20146;-74
2023/08/09 06:07:15;;;;;;;10.00;1.98;;;;;;;-144.73;100.00;54588.31;4966392;28;20106;-74
2023/08/09 06:09:44;;;;;;;10.70;2.20;;;;;;;-144.73;100.00;54559.59;4960356;28;20029;-75
2023/08/09 06:12:09;;;;;;;16.77;2.53;;;;;;;-144.73;100.00;54539.06;5009592;28;20412;-75
2023/08/09 06:14:37;;;;;;;9.65;2.13;;;;;;;-144.73;100.00;54588.31;4994062;28;20028;-74
2023/08/09 06:17:03;;;;;;;10.57;1.98;;;;;;;-144.73;100.00;54563.69;5021327;28;20083;-73
2023/08/09 06:19:28;;;;;;;14.80;2.97;;;;;;;-144.73;100.00;54584.22;4980135;28;20057;-73
2023/08/09 06:21:53;;;;;;;14.95;2.63;;;;;;;-144.73;100.00;54559.59;5021267;28;20510;-74
2023/08/09 06:24:19;;;;;;;15.48;2.22;;;;;;;-144.73;100.00;54563.69;5038216;28;20150;-74
2023/08/09 06:26:44;;;;;;;15.90;3.15;;;;;;;-144.73;100.00;54555.47;4979287;28;20049;-74
2023/08/09 06:29:09;;;;;;;13.00;2.50;;;;;;;-144.73;100.00;54539.06;5010745;28;20019;-74
2023/08/09 06:31:35;;;;;;;15.60;2.28;;;;;;;-144.73;100.00;54522.63;4950960;28;20035;-74
2023/08/09 06:34:00;;;;;;;14.18;2.58;;;;;;;-144.73;100.00;54553.44;4952011;28;20019;-74
2023/08/09 06:36:26;;;;;;;13.73;2.05;;;;;;;-144.73;100.00;54559.59;4965919;28;20047;-74
2023/08/09 06:38:51;;;;;;;16.48;2.17;;;;;;;-144.73;100.00;54551.38;4962048;28;20102;-75
2023/08/09 06:41:16;;;;;;;8.70;2.15;;;;;;;-144.73;100.00;54584.22;4974671;28;20044;-75
2023/08/09 06:43:42;;;;;;;14.73;2.45;;;;;;;-144.73;100.00;54582.16;4999610;28;20115;-74
2023/08/09 06:46:07;;;;;;;15.00;2.85;;;;;;;-144.73;100.00;54563.69;5007501;28;20067;-74
2023/08/09 06:48:33;;;;;;;16.15;2.17;;;;;;;-144.73;100.00;54571.91;4993400;28;20029;-74
2023/08/09 06:51:00;;;;;;;12.75;2.67;;;;;;;-144.73;100.00;54539.06;4990843;28;20037;-73
2023/08/09 06:53:28;;;;;;;13.32;2.40;;;;;;;-144.73;100.00;54551.38;4997191;28;20371;-75
2023/08/09 06:55:56;;;;;;;;;;;;;;;-144.73;100.00;54551.38;4961777;28;20095;-74
2023/08/09 06:58:22;;;;;;;13.00;2.05;;;;;;;-144.73;100.00;54516.47;4985045;28;20054;-75
2023/08/09 07:00:48;;;;;;;13.32;2.55;;;;;;;-144.73;100.00;54539.06;4994119;28;20516;-75
2023/08/09 07:03:13;;;;;;;10.52;1.75;;;;;;;-144.73;100.00;54543.16;4981761;28;20035;-75
2023/08/09 07:05:40;;;;;;;19.08;3.03;;;;;;;-144.73;100.00;54571.91;5001292;28;20029;-74
2023/08/09 07:08:05;;;;;;;18.38;2.55;;;;;;;-144.73;100.00;54514.44;5006232;28;20387;-75
2023/08/09 07:10:30;;;;;;;20.70;2.95;;;;;;;-144.73;100.00;54555.47;4949502;28;20111;-75
2023/08/09 07:12:56;;;;;;;15.98;1.98;;;;;;;-144.73;100.00;54551.38;5016927;28;20055;-75
2023/08/09 07:15:21;;;;;;;15.85;2.58;;;;;;;-144.73;100.00;54551.38;5041579;28;20131;-74
2023/08/09 07:17:47;;;;;;;15.40;2.45;;;;;;;-144.73;100.00;54567.81;4991415;28;20031;-74
2023/08/09 07:20:14;;;;;;;16.25;2.55;;;;;;;-144.73;100.00;54551.38;5045598;28;20028;-74
2023/08/09 07:22:46;;;;;;;13.77;2.47;;;;;;;-144.73;100.00;54543.16;4949687;28;20107;-75
2023/08/09 07:25:16;;;;;;;8.98;2.10;;;;;;;-144.73;100.00;54549.31;4958257;28;20031;-74
2023/08/09 07:27:47;;;;;;;13.43;2.13;;;;;;;-144.73;100.00;54555.47;4975320;28;20073;-74
2023/08/09 07:30:15;;;;;;;12.45;2.65;;;;;;;-144.73;100.00;54539.06;5007118;28;20029;-74
2023/08/09 07:32:40;;;;;;;15.32;2.03;;;;;;;-144.73;100.00;54530.84;5023294;28;20036;-74
2023/08/09 07:35:08;;;;;;;14.48;2.70;;;;;;;-144.73;100.00;54541.13;4998636;28;20478;-75
2023/08/09 07:37:34;;;;;;;20.60;3.10;;;;;;;-144.73;100.00;54506.22;4947361;28;20044;-75
2023/08/09 07:40:01;;;;;;;16.88;2.05;;;;;;;-144.73;100.00;54465.16;4950249;28;20015;-74
2023/08/09 07:42:26;;;;;;;14.93;2.03;;;;;;;-144.73;100.00;54526.75;4957806;28;20097;-75
2023/08/09 07:44:52;;;;;;;16.13;3.22;;;;;;;-144.73;100.00;54522.63;4980982;28;20031;-75
2023/08/09 07:47:17;;;;;;;15.23;2.40;;;;;;;-144.73;100.00;54539.06;4949698;28;20043;-74
2023/08/09 07:49:42;;;;;;;12.27;2.30;;;;;;;-144.73;100.00;54539.06;4967331;28;20021;-74
2023/08/09 07:52:08;;;;;;;17.25;2.17;;;;;;;-144.73;100.00;54547.28;5014290;28;20454;-74
2023/08/09 07:54:33;;;;;;;7.68;2.03;;;;;;;-144.73;100.00;54539.06;4956603;28;20417;-75
2023/08/09 07:56:58;;;;;;;18.23;2.35;;;;;;;-144.73;100.00;54539.06;5008581;28;20029;-74
2023/08/09 07:59:24;;;;;;;18.48;3.50;;;;;;;-144.73;100.00;54539.06;4993725;28;20049;-75
2023/08/09 08:01:49;;;;;;;14.27;2.20;;;;;;;-144.73;100.00;54551.38;4955500;28;20059;-75
2023/08/09 08:04:14;;;;;;;10.32;2.22;;;;;;;-144.73;100.00;54551.38;4950159;28;20042;-75
2023/08/09 08:06:40;;;;;;;11.45;2.05;;;;;;;-144.73;100.00;54489.81;4977683;28;20027;-74
2023/08/09 08:09:05;;;;;;;14.15;2.47;;;;;;;-144.73;100.00;54547.28;4933377;28;20102;-75
2023/08/09 08:11:31;;;;;;;15.18;2.92;;;;;;;-144.73;100.00;54498.00;5016638;28;20029;-74
2023/08/09 08:13:57;;;;;;;12.52;2.58;;;;;;;-144.73;100.00;54522.63;4975695;28;20015;-75
2023/08/09 08:16:23;;;;;;;12.02;2.42;;;;;;;-144.73;100.00;54549.31;4965432;28;20119;-74
2023/08/09 08:18:49;;;;;;;20.60;2.65;;;;;;;-144.73;100.00;54539.06;4962930;28;20118;-75
2023/08/09 08:21:14;;;;;;;11.82;2.45;;;;;;;-144.73;100.00;54524.69;5013803;28;20033;-74
2023/08/09 08:23:40;;;;;;;16.80;2.85;;;;;;;-144.73;100.00;54487.75;4955042;28;20042;-74
2023/08/09 08:26:05;;;;;;;19.08;2.70;;;;;;;-144.73;100.00;54522.63;4991105;28;20044;-76
2023/08/09 08:28:30;;;;;;;23.50;2.60;;;;;;;-144.73;100.00;54514.44;4968557;28;20044;-74
2023/08/09 08:30:56;;;;;;;13.45;2.75;;;;;;;-144.73;100.00;54506.22;4942612;28;20035;-74
2023/08/09 08:33:21;;;;;;;9.32;2.47;;;;;;;-144.73;100.00;54506.22;4939256;28;20031;-74
2023/08/09 08:35:48;;;;;;;18.00;2.78;;;;;;;-144.73;100.00;54489.81;4955478;28;20046;-74
2023/08/09 08:38:15;;;;;;;16.50;2.88;;;;;;;-144.73;100.00;54473.38;4944753;28;20076;-74
2023/08/09 08:40:43;;;;;;;18.67;2.97;;;;;;;-144.73;100.00;54506.22;4946711;28;20031;-74
2023/08/09 08:43:08;;;;;;;5.72;2.20;;;;;;;-144.73;100.00;54502.13;4954478;28;20030;-73
2023/08/09 08:45:36;;;;;;;12.65;2.67;;;;;;;-144.73;100.00;54493.91;4957781;28;20035;-74
2023/08/09 08:48:04;;;;;;;13.27;2.53;;;;;;;-144.73;100.00;54530.84;4952556;28;20016;-75
2023/08/09 08:50:31;;;;;;;18.15;2.60;;;;;;;-144.73;100.00;54528.81;5000803;28;20021;-75
2023/08/09 08:52:57;;;;;;;16.90;3.20;;;;;;;-144.73;100.00;54539.06;4995288;28;20021;-75
2023/08/09 08:55:25;;;;;;;15.90;3.35;;;;;;;-144.73;100.00;54539.06;4968120;28;20035;-74
2023/08/09 08:57:52;;;;;;;12.38;2.90;;;;;;;-144.73;100.00;54541.13;4975397;28;20019;-74
2023/08/09 09:00:20;;;;;;;18.05;3.03;;;;;;;-144.73;100.00;54543.16;4971430;28;20120;-74
2023/08/09 09:02:46;;;;;;;9.95;2.22;;;;;;;-144.73;100.00;54543.16;4989576;28;20104;-72
2023/08/09 09:05:13;;;;;;;9.23;2.50;;;;;;;-144.73;100.00;54510.31;4978375;28;20035;-73
2023/08/09 09:07:39;;;;;;;12.80;2.35;;;;;;;-144.73;100.00;54559.59;4977010;28;20119;-72
2023/08/09 09:10:06;;;;;;;13.05;2.20;;;;;;;-144.73;100.00;54514.44;5006952;28;20021;-72
2023/08/09 09:12:39;;;;;;;10.52;2.53;;;;;;;-144.73;100.00;54543.16;4983560;28;20028;-72
2023/08/09 09:15:06;;;;;;;16.95;3.83;;;;;;;-144.73;100.00;54547.28;4936810;28;20027;-72
2023/08/09 09:29:50;;;;;;;13.98;2.58;;;;;;;-144.73;100.00;54473.38;5058828;28;20439;-72
2023/08/09 09:32:15;;;;;;;11.35;2.47;;;;;;;-144.73;100.00;54481.59;5044299;28;20072;-72
2023/08/09 09:34:41;;;;;;;15.77;2.08;;;;;;;-144.73;100.00;54518.53;5009364;28;20046;-73
2023/08/09 09:37:06;;;;;;;11.88;2.33;;;;;;;-144.73;100.00;54510.31;5040232;28;20055;-71
2023/08/09 09:39:32;;;;;;;15.57;2.70;;;;;;;-144.73;100.00;54506.22;5040157;28;20029;-72
2023/08/09 09:41:58;;;;;;;8.50;2.08;;;;;;;-144.73;100.00;54510.31;5043532;28;20100;-71
2023/08/09 09:44:23;;;;;;;8.52;2.10;;;;;;;-144.73;100.00;54526.75;5041600;28;20033;-71
2023/08/09 09:46:57;;;;;;;13.52;2.10;;;;;;;-144.73;100.00;54514.44;5044835;28;20021;-72
2023/08/09 09:49:23;;;;;;;9.80;2.55;;;;;;;-144.73;100.00;54473.38;5037281;28;20095;-70
2023/08/09 09:51:50;;;;;;;8.77;2.22;;;;;;;-144.73;100.00;54539.06;5038374;28;20032;-71
2023/08/09 09:54:16;;;;;;;10.20;2.35;;;;;;;-144.73;100.00;54518.53;5039904;28;20029;-72
2023/08/09 09:56:41;;;;;;;11.20;2.55;;;;;;;-144.73;100.00;54524.69;5041193;28;20380;-72
2023/08/09 09:59:07;;;;;;;15.13;2.47;;;;;;;-144.73;100.00;54477.47;5038222;28;20040;-72
2023/08/09 10:01:39;;;;;;;13.38;2.45;;;;;;;-144.73;100.00;54510.31;5055311;28;20116;-73
2023/08/09 10:04:06;;;;;;;14.50;2.35;;;;;;;-144.73;100.00;54498.00;5049097;28;20053;-73
2023/08/09 10:06:36;;;;;;;8.77;2.30;;;;;;;-144.73;100.00;54502.13;5054274;28;20017;-73
2023/08/09 10:09:04;;;;;;;13.02;2.55;;;;;;;-144.73;100.00;54498.00;5055732;28;20021;-71
2023/08/09 10:11:33;;;;;;;16.02;2.83;;;;;;;-144.73;100.00;54498.00;5052949;28;20051;-71
2023/08/09 10:14:02;;;;;;;13.48;2.85;;;;;;;-144.73;100.00;54506.22;5047812;28;20039;-73
2023/08/09 10:16:29;;;;;;;11.43;2.20;;;;;;;-144.73;100.00;54502.13;5049125;28;20029;-71
2023/08/09 10:19:00;;;;;;;17.42;3.03;;;;;;;-144.73;100.00;54502.13;5051992;28;20060;-72
2023/08/09 10:21:26;;;;;;;17.48;2.90;;;;;;;-144.73;100.00;54504.16;5032017;28;20021;-72
2023/08/09 10:23:57;;;;;;;13.68;2.40;;;;;;;-144.73;96.18;54469.28;5059107;28;20037;-73
2023/08/09 10:26:29;;;;;;;13.50;2.00;;;;;;;-144.73;96.88;54465.16;5047630;28;20043;-73
2023/08/09 10:29:10;;;;;;;10.55;2.10;;;;;;;-144.73;91.39;54498.00;5049076;28;20173;-73
2023/08/09 10:31:59;;;;;;;15.35;2.40;;;;;;;-144.73;91.88;54485.69;5068415;28;20036;-73
2023/08/09 10:34:40;;;;;;;9.82;2.15;;;;;;;-144.73;86.96;54469.28;5074056;28;20029;-72
2023/08/09 10:37:07;;;;;;;10.98;2.47;;;;;;;-144.73;84.62;54454.91;5069518;28;20036;-72
2023/08/09 10:39:34;;;;;;;13.07;2.47;;;;;;;-144.73;76.18;54477.47;5070780;28;20037;-73
2023/08/09 10:42:00;;;;;;;10.05;2.47;;;;;;;-144.73;78.91;54518.53;5060105;28;20034;-70
2023/08/09 10:44:37;;;;;;;14.05;2.25;;;;;;;-144.73;83.26;54539.06;5056089;28;20112;-72
2023/08/09 10:47:19;;;;;;;14.75;2.17;;;;;;;-144.73;94.99;54539.06;5060681;28;20025;-72
2023/08/09 10:49:47;;;;;;;12.50;2.60;;;;;;;-144.73;100.00;54493.91;5064581;28;20044;-72
2023/08/09 10:52:14;;;;;;;9.90;2.35;;;;;;;-144.73;100.00;54473.38;5047133;28;20233;-73
2023/08/09 10:54:39;;;;;;;18.65;1.98;;;;;;;-144.73;100.00;54510.31;5065080;28;20037;-72
2023/08/09 10:57:09;;;;;;;11.13;2.20;;;;;;;-144.73;96.71;54483.66;5043767;28;20457;-71
2023/08/09 10:59:37;;;;;;;15.13;2.05;;;;;;;-144.73;89.72;54473.38;5054359;28;20037;-73
2023/08/09 11:02:04;;;;;;;6.55;1.88;;;;;;;-144.73;82.31;54481.59;5058210;28;20031;-71
2023/08/09 11:04:29;;;;;;;10.80;2.17;;;;;;;-144.73;77.16;54473.38;5057324;28;20044;-72
2023/08/09 11:06:55;;;;;;;14.73;2.40;;;;;;;-144.73;75.00;54485.69;5063305;28;20039;-73
2023/08/09 11:09:22;;;;;;;12.93;2.03;;;;;;;-144.73;72.24;54459.00;5058872;28;20041;-71
2023/08/09 11:11:49;;;;;;;10.70;2.80;;;;;;;-144.73;70.09;54493.91;5059359;28;20037;-72
2023/08/09 11:14:17;;;;;;;10.68;2.60;;;;;;;-144.73;68.10;54493.91;5052453;28;20075;-73